createdAt,value
2023-03-14T06:47:07.463Z,0
2023-03-14T06:48:47.768Z,85.47
2023-03-14T06:50:28.156Z,84.73
2023-03-14T06:52:08.517Z,84.26
2023-03-14T06:53:49.015Z,83.52
2023-03-14T06:55:29.406Z,84.22
2023-03-14T06:57:09.847Z,84.06
2023-03-14T06:58:50.511Z,83.58
2023-03-14T07:00:30.674Z,84.02
2023-03-14T07:02:11.039Z,82.33
2023-03-14T07:03:51.412Z,82.55
2023-03-14T07:05:31.846Z,82.3
2023-03-14T07:07:12.220Z,82.41
2023-03-14T07:08:52.617Z,82.39
2023-03-14T07:10:33.030Z,80.92
2023-03-14T07:12:13.503Z,81.49
2023-03-14T07:13:53.904Z,81.61
2023-03-14T07:15:34.421Z,81.7
2023-03-14T07:17:14.737Z,81.18
2023-03-14T07:18:55.199Z,80.7
2023-03-14T07:20:35.565Z,80.4
2023-03-14T07:22:15.975Z,80.96
2023-03-14T07:23:56.473Z,80.34
2023-03-14T07:25:36.890Z,80.23
2023-03-14T07:27:17.421Z,80.25
2023-03-14T07:28:57.772Z,79.81
2023-03-14T07:30:38.218Z,79.2
2023-03-14T07:32:18.653Z,79.38
2023-03-14T07:33:59.044Z,79.15
2023-03-14T07:35:39.524Z,79.21
2023-03-14T07:37:19.914Z,79.46
2023-03-14T07:39:00.344Z,78.88
2023-03-14T07:40:40.797Z,79.16
2023-03-14T07:42:21.177Z,79.83
2023-03-14T07:44:01.598Z,79.17
2023-03-14T07:45:43.070Z,79.45
2023-03-14T07:47:22.370Z,79.25
2023-03-14T07:49:02.812Z,79.03
2023-03-14T07:50:43.300Z,78.7
2023-03-14T07:52:23.679Z,78.98
2023-03-14T07:54:04.136Z,78.53
2023-03-14T07:55:44.626Z,78.04
2023-03-14T07:57:25.064Z,78.12
2023-03-14T07:59:05.553Z,77.94
2023-03-14T08:00:45.971Z,77.62
2023-03-14T08:02:26.489Z,78.01
2023-03-14T08:04:06.847Z,77.29
2023-03-14T08:05:47.267Z,78.06
2023-03-14T08:07:27.692Z,77.91
2023-03-14T08:09:08.145Z,78.39
2023-03-14T08:10:48.536Z,77.62
2023-03-14T08:12:28.960Z,77.22
2023-03-14T08:14:09.385Z,77.97
2023-03-14T08:15:49.825Z,77.28
2023-03-14T08:17:30.178Z,77.07
2023-03-14T08:19:10.575Z,77.2
2023-03-14T08:20:51.005Z,76.3
2023-03-14T08:22:31.437Z,76.21
2023-03-14T08:24:11.863Z,75.11
2023-03-14T08:25:52.254Z,75.87
2023-03-14T08:27:32.636Z,75.14
2023-03-14T08:29:12.997Z,75.4
2023-03-14T08:30:53.581Z,75.34
2023-03-14T08:32:33.875Z,74.33
2023-03-14T08:34:14.252Z,73.92
2023-03-14T08:35:54.726Z,74.81
2023-03-14T08:37:35.125Z,74.67
2023-03-14T08:39:15.543Z,74.32
2023-03-14T08:40:55.901Z,72.9
2023-03-14T08:42:36.381Z,74.23
2023-03-14T08:44:20.080Z,75.03
2023-03-14T08:45:57.207Z,75.76
2023-03-14T08:47:37.607Z,76.08
2023-03-14T08:49:18.078Z,76.42
2023-03-14T08:50:58.375Z,77.64
2023-03-14T08:52:38.861Z,76.54
2023-03-14T08:54:19.206Z,77.2
2023-03-14T08:55:59.635Z,78.06
2023-03-14T08:57:40.038Z,76.82
2023-03-14T08:59:20.469Z,76.84
2023-03-14T09:01:00.981Z,77.09
2023-03-14T09:02:41.406Z,76.55
2023-03-14T09:04:21.813Z,75.35
2023-03-14T09:06:02.106Z,76.25
2023-03-14T09:07:42.462Z,75.01
2023-03-14T09:09:22.851Z,74.61
2023-03-14T09:11:03.282Z,75.23
2023-03-14T09:12:43.575Z,75.26
2023-03-14T12:48:37.050Z,0
2023-03-14T12:50:17.281Z,82.38
2023-03-14T12:51:57.862Z,82.88
2023-03-14T12:53:38.324Z,83.04
2023-03-14T12:55:18.689Z,83.74
2023-03-14T12:56:59.230Z,83.18
2023-03-14T12:58:39.600Z,82.17
2023-03-14T13:00:20.042Z,82.37
2023-03-14T13:02:00.473Z,82.84
2023-03-14T13:03:40.819Z,83.46
2023-03-14T13:05:21.185Z,83.64
2023-03-14T13:07:01.603Z,82.77
2023-03-14T13:08:41.996Z,83.5
2023-03-14T13:10:22.403Z,84.14
2023-03-14T13:12:02.823Z,84.7
2023-03-14T13:13:43.196Z,85.25
2023-03-14T13:15:23.574Z,84.88
2023-03-14T13:17:25.132Z,85.51
2023-03-14T13:18:44.242Z,86.12
2023-03-14T13:20:24.606Z,86.52
2023-03-14T13:22:04.975Z,86.65
2023-03-14T13:23:45.427Z,86.68
2023-03-14T13:25:25.910Z,86.98
2023-03-14T13:27:06.258Z,85.52
2023-03-14T13:28:46.663Z,86.27
2023-03-14T13:30:27.056Z,86.28
2023-03-14T13:32:07.423Z,86.65
2023-03-14T13:33:47.744Z,86.32
2023-03-14T13:35:28.194Z,86.1
2023-03-14T13:37:08.603Z,85.32
2023-03-14T13:38:48.940Z,85.97
2023-03-14T13:40:29.385Z,86.21
2023-03-14T13:42:09.717Z,85.53
2023-03-14T13:43:50.034Z,85.31
2023-03-14T13:45:30.451Z,85.5
2023-03-14T13:47:10.908Z,85.34
2023-03-14T13:48:51.302Z,84.55
2023-03-14T13:50:31.642Z,84.24
2023-03-14T13:52:11.881Z,84.09
2023-03-14T13:53:52.225Z,84.61
2023-03-14T13:55:32.710Z,83.97
2023-03-14T13:57:13.052Z,83.68
2023-03-14T13:58:53.340Z,83.34
2023-03-14T14:00:33.925Z,81.72
2023-03-14T14:02:16.045Z,83.38
2023-03-14T14:03:54.643Z,83.35
2023-03-14T14:05:35.153Z,82.93
2023-03-14T14:07:15.575Z,82.84
2023-03-14T14:08:55.985Z,82.84
2023-03-14T14:10:36.385Z,81.8
2023-03-14T14:12:17.481Z,81.88
2023-03-14T14:13:57.145Z,82.62
2023-03-14T14:15:37.597Z,81.71
2023-03-14T14:17:17.970Z,81.96
2023-03-14T14:18:58.380Z,80.82
2023-03-14T14:20:38.864Z,82.1
2023-03-14T14:22:19.221Z,80.49
2023-03-14T14:23:59.586Z,81.12
2023-03-14T14:25:39.946Z,81.21
2023-03-14T14:27:20.290Z,81.49
2023-03-14T14:29:00.711Z,79.61
2023-03-14T14:30:41.159Z,80.44
2023-03-14T14:32:21.594Z,80.63
2023-03-14T14:34:02.234Z,82.38
2023-03-14T14:35:42.467Z,83.12
2023-03-14T14:37:22.878Z,83.94
2023-03-14T14:39:03.264Z,83
2023-03-14T14:40:43.732Z,83.84
2023-03-14T14:42:24.115Z,84.85
2023-03-14T14:44:04.537Z,84.81
2023-03-14T14:45:44.919Z,84.61
2023-03-14T14:47:25.255Z,84.89
2023-03-14T14:49:05.644Z,85.43
2023-03-14T14:50:46.050Z,84.72
2023-03-14T14:52:28.448Z,84.97
2023-03-14T14:54:06.983Z,85.7
2023-03-14T14:55:47.405Z,85.43
2023-03-14T14:59:00.961Z,0
2023-03-14T15:00:40.976Z,84.94
2023-03-14T15:02:21.272Z,84.38
2023-03-14T15:04:01.805Z,84.51
2023-03-14T15:05:42.267Z,84.82
2023-03-14T15:07:22.647Z,84.53
2023-03-14T15:09:03.028Z,83.51
2023-03-14T15:10:43.489Z,83.76
2023-03-14T15:12:23.839Z,83.41
2023-03-14T15:14:04.283Z,83.51
2023-03-14T15:15:44.569Z,83.59
2023-03-14T15:17:25.001Z,83.66
2023-03-14T15:19:17.911Z,83.44
2023-03-14T15:20:45.848Z,80.84
2023-03-14T15:22:26.190Z,81.1
2023-03-14T15:24:06.656Z,80.71
2023-03-14T15:25:55.501Z,79.42
2023-03-14T15:27:27.424Z,80.16
2023-03-14T15:29:07.823Z,79.65
2023-03-14T15:30:48.318Z,79.23
2023-03-14T15:32:28.700Z,79.08
2023-03-14T15:34:09.077Z,79.66
2023-03-14T15:35:49.515Z,79.67
2023-03-14T15:37:29.911Z,80.41
2023-03-14T15:39:10.346Z,78.73
2023-03-14T15:40:50.831Z,78.71
2023-03-14T15:42:31.156Z,78.94
2023-03-14T15:44:11.629Z,78.43
2023-03-14T15:45:52.119Z,78.66
2023-03-14T15:47:32.373Z,79.41
2023-03-14T15:49:12.816Z,79.54
2023-03-14T15:50:53.220Z,79.51
2023-03-14T15:52:33.548Z,79.46
2023-03-14T15:53:34.225Z,0
2023-03-14T15:54:42.406Z,0
2023-03-14T15:56:33.239Z,0
2023-03-14T16:29:18.162Z,0
2023-03-14T16:32:07.746Z,0
2023-03-14T16:34:59.085Z,0
2023-03-14T16:36:05.056Z,0
2023-03-14T16:37:20.765Z,0
2023-03-14T16:39:01.081Z,67.51
2023-03-14T16:40:41.517Z,67.32
2023-03-14T16:42:25.010Z,66.64
2023-03-14T16:44:02.380Z,67.06
2023-03-14T16:45:42.879Z,67.19
2023-03-14T16:47:23.174Z,67.71
2023-03-14T16:49:03.557Z,68.34
2023-03-14T16:50:43.897Z,69.07
2023-03-14T16:52:24.327Z,67.14
2023-03-14T16:54:04.768Z,67.32
2023-03-14T16:55:45.155Z,66.59
2023-03-14T16:57:28.643Z,67.32
2023-03-14T16:59:05.956Z,68.89
2023-03-14T17:00:46.372Z,68.69
2023-03-14T17:02:26.770Z,67.97
2023-03-14T17:04:07.154Z,68.64
2023-03-14T17:05:47.530Z,69.25
2023-03-14T17:07:27.963Z,70.02
2023-03-14T17:09:08.402Z,70.03
2023-03-14T17:10:48.780Z,70.98
2023-03-14T17:12:29.158Z,70.84
2023-03-14T17:14:09.466Z,71.69
2023-03-14T17:15:50.005Z,71.58
2023-03-14T17:17:30.301Z,71.15
2023-03-14T17:19:10.687Z,71.96
2023-03-14T17:20:51.069Z,71.49
2023-03-14T17:22:32.924Z,72.03
2023-03-14T17:24:11.865Z,72.66
2023-03-14T17:25:52.272Z,72.41
2023-03-14T17:27:32.650Z,72.53
2023-03-14T17:29:13.010Z,73.14
2023-03-14T17:30:53.463Z,73.24
2023-03-14T17:32:33.913Z,73.42
2023-03-14T17:34:14.240Z,73.86
2023-03-14T17:35:54.734Z,74.5
2023-03-14T17:37:35.112Z,74.78
2023-03-14T18:01:07.105Z,0
2023-03-14T18:02:59.266Z,0
2023-03-14T18:04:38.292Z,74.1
2023-03-14T18:10:02.876Z,0
2023-03-14T18:11:43.258Z,69.3
2023-03-14T18:13:23.619Z,68.46
2023-03-14T18:15:04.071Z,67.73
2023-03-14T18:16:44.503Z,67.19
2023-03-14T18:18:24.867Z,68.06
2023-03-14T18:20:05.417Z,66.57
2023-03-14T18:21:45.677Z,66.6
2023-03-14T18:23:26.008Z,65.87
2023-03-14T18:25:06.422Z,63.54
2023-03-14T18:26:46.761Z,63.82
2023-03-14T18:28:27.123Z,63.76
2023-03-14T18:30:07.594Z,63.89
2023-03-14T18:31:48.018Z,64.29
2023-03-14T18:33:28.411Z,64.69
2023-03-14T18:35:08.811Z,62.72
2023-03-14T18:36:49.235Z,62.74
2023-03-14T18:38:29.601Z,62.72
2023-03-14T18:40:13.147Z,63.14
2023-03-14T18:41:50.454Z,61.52
2023-03-14T18:43:31.778Z,62.49
2023-03-14T18:45:11.231Z,63.04
2023-03-14T18:46:51.854Z,62.25
2023-03-14T18:48:32.001Z,61.88
2023-03-14T18:50:12.356Z,62.05
2023-03-14T18:51:52.588Z,63.04
2023-03-14T18:53:33.719Z,62.89
2023-03-14T18:55:14.184Z,63.16
2023-03-14T18:56:54.519Z,63.64
2023-03-14T18:58:34.992Z,63.71
2023-03-14T19:00:15.426Z,63.18
2023-03-14T19:01:42.464Z,0
2023-03-14T19:04:52.102Z,0
2023-03-14T19:06:44.201Z,0
2023-03-14T19:08:10.728Z,0
2023-03-14T19:09:51.047Z,64.07
2023-03-14T19:11:31.469Z,64.79
2023-03-14T19:13:11.903Z,64.49
2023-03-14T19:14:53.164Z,64.51
2023-03-14T19:16:32.734Z,63.97
2023-03-14T19:18:12.998Z,64.93
2023-03-14T19:19:53.356Z,64.9
2023-03-14T19:21:33.751Z,66.38
2023-03-14T19:23:14.220Z,65.25
2023-03-14T19:24:57.668Z,66.18
2023-03-14T19:26:34.979Z,65.7
2023-03-14T19:28:15.371Z,66.63
2023-03-14T19:29:55.809Z,67.65
2023-03-14T19:31:36.291Z,67.37
2023-03-14T19:33:19.762Z,68.04
2023-03-14T19:34:57.175Z,68.17
2023-03-14T19:36:37.590Z,68.26
2023-03-14T19:38:18.029Z,67.79
2023-03-14T19:39:58.308Z,68.75
2023-03-14T19:41:38.723Z,69.1
2023-03-14T19:43:19.022Z,69.35
2023-03-14T19:44:59.318Z,68.49
2023-03-14T19:46:39.730Z,68.65
2023-03-14T19:48:21.125Z,69.05
2023-03-14T19:50:00.558Z,69.17
2023-03-14T19:51:40.947Z,69.38
2023-03-14T19:53:21.395Z,69.84
2023-03-14T19:55:01.787Z,69.61
2023-03-14T19:56:42.085Z,71.14
2023-03-14T19:58:22.459Z,70.98
2023-03-14T20:00:02.806Z,70.58
2023-03-14T20:01:43.296Z,71.09
2023-03-14T20:03:23.621Z,72
2023-03-14T20:05:06.106Z,72.68
2023-03-14T20:06:44.463Z,72.97
2023-03-14T20:08:24.853Z,72.99
2023-03-14T20:10:05.295Z,73.22
2023-03-14T20:11:45.703Z,75.22
2023-03-14T20:13:26.075Z,74.63
2023-03-14T20:15:06.420Z,75.32
2023-03-14T20:16:46.991Z,75.5
2023-03-14T20:18:27.238Z,76.13
2023-03-14T20:20:07.641Z,76.31
2023-03-14T20:21:48.053Z,76.67
2023-03-14T20:23:28.437Z,76.93
2023-03-14T20:25:08.816Z,77.48
2023-03-14T20:26:49.286Z,76.62
2023-03-14T20:28:29.656Z,77.67
2023-03-14T20:30:10.004Z,78.01
2023-03-14T20:31:50.406Z,78.19
2023-03-14T20:33:30.825Z,77.71
2023-03-14T20:35:11.209Z,77.71
2023-03-14T20:36:51.534Z,78.19
2023-03-14T20:38:34.871Z,77.97
2023-03-14T20:40:12.132Z,77.03
2023-03-14T20:41:52.572Z,75.99
2023-03-14T20:43:33.018Z,75.18
2023-03-14T20:45:13.344Z,75.85
2023-03-14T20:46:54.381Z,75.12
2023-03-14T20:48:34.205Z,74.48
2023-03-14T20:50:14.611Z,73.95
2023-03-14T20:51:55.002Z,73.41
2023-03-14T20:53:35.416Z,73.22
2023-03-14T20:55:15.740Z,72.94
2023-03-14T20:56:56.166Z,73.69
2023-03-14T20:58:36.656Z,73.05
2023-03-14T21:00:17.115Z,72.9
2023-03-14T21:01:57.579Z,72.82
2023-03-14T21:03:37.971Z,72.88
2023-03-14T21:05:18.410Z,72.54
2023-03-14T21:06:58.788Z,72.99
2023-03-14T21:08:39.314Z,72.4
2023-03-14T21:10:19.594Z,72.71
2023-03-14T21:11:59.898Z,73.54
2023-03-14T21:13:40.211Z,72.62
2023-03-14T21:15:20.513Z,72.93
2023-03-14T21:17:00.806Z,73.49
2023-03-14T21:18:41.213Z,73.68
2023-03-14T21:20:21.456Z,74.65
2023-03-14T21:22:01.796Z,74.68
2023-03-14T21:23:41.997Z,74.95
2023-03-14T21:25:22.319Z,76.26
2023-03-14T21:27:02.666Z,76.12
2023-03-14T21:28:42.915Z,76.78
2023-03-14T21:30:23.232Z,76.72
2023-03-14T21:32:03.534Z,77.2
2023-03-14T21:33:43.830Z,77.78
2023-03-14T21:35:24.196Z,77.51
2023-03-14T21:37:04.456Z,77.41
2023-03-14T21:38:44.729Z,77.5
2023-03-14T21:40:25.058Z,78.67
2023-03-14T21:42:05.354Z,78.59
2023-03-14T21:43:45.650Z,79.2
2023-03-14T21:45:25.963Z,79.51
2023-03-14T21:47:06.236Z,79.1
2023-03-14T21:48:46.550Z,78.72
2023-03-14T21:50:26.885Z,79.83
2023-03-14T21:52:07.301Z,80.18
2023-03-14T21:53:47.768Z,79.82
2023-03-14T21:55:28.213Z,80.52
2023-03-14T21:57:08.657Z,80.83
2023-03-14T21:58:49.071Z,80.83
2023-03-14T22:00:29.503Z,80.31
2023-03-14T22:02:09.935Z,81.29
2023-03-14T22:03:50.214Z,80.96
2023-03-14T22:05:30.648Z,81.86
2023-03-14T22:07:11.077Z,81.45
2023-03-14T22:08:51.512Z,82.03
2023-03-14T22:10:32.017Z,82.6
2023-03-14T22:12:12.425Z,83.2
2023-03-14T22:13:52.867Z,83.73
2023-03-14T22:15:33.299Z,81.94
2023-03-14T22:17:13.727Z,82.05
2023-03-14T22:18:54.097Z,81.23
2023-03-14T22:20:34.454Z,82.09
2023-03-14T22:22:14.741Z,82.58
2023-03-14T22:23:55.041Z,82.39
2023-03-14T22:25:35.355Z,82.91
2023-03-14T22:27:15.664Z,83.03
2023-03-14T22:28:55.982Z,83.38
2023-03-14T22:30:36.256Z,83.08
2023-03-14T22:32:16.579Z,83.12
2023-03-14T22:33:56.909Z,83.56
2023-03-14T22:35:37.220Z,84.52
2023-03-14T22:37:17.485Z,84.45
2023-03-14T22:38:57.757Z,83.29
2023-03-14T22:40:38.067Z,83.32
2023-03-14T22:42:18.390Z,83.23
2023-03-14T22:43:58.674Z,83.14
2023-03-14T22:45:39.006Z,83.85
2023-03-14T22:47:19.279Z,83.92
2023-03-14T22:48:59.675Z,84.33
2023-03-14T22:50:40.115Z,84.3
2023-03-14T22:52:20.446Z,84.28
2023-03-14T22:54:00.811Z,83.99
2023-03-14T22:55:41.278Z,84.31
2023-03-14T22:57:21.641Z,84.47
2023-03-14T22:59:02.069Z,84.44
2023-03-14T23:00:42.539Z,83.98
2023-03-14T23:02:22.854Z,84.26
2023-03-14T23:04:03.269Z,84.45
2023-03-14T23:05:43.695Z,84.19
2023-03-14T23:07:24.097Z,83.35
2023-03-14T23:09:04.430Z,82.89
2023-03-14T23:10:44.905Z,82.31
2023-03-14T23:12:25.405Z,82.71
2023-03-14T23:14:05.848Z,82.15
2023-03-14T23:15:46.326Z,82.68
2023-03-14T23:17:26.714Z,82.89
2023-03-14T23:19:07.042Z,83.2
2023-03-14T23:20:48.161Z,83.43
2023-03-14T23:22:27.646Z,83.57
2023-03-14T23:24:07.960Z,83.97
2023-03-14T23:25:53.289Z,84.3
2023-03-14T23:27:28.591Z,84.93
2023-03-14T23:29:08.858Z,84.6
2023-03-14T23:30:49.170Z,84.62
2023-03-14T23:32:29.490Z,84.61
2023-03-14T23:34:09.793Z,84.14
2023-03-14T23:35:50.141Z,84.21
2023-03-14T23:37:30.434Z,83.89
2023-03-14T23:39:10.846Z,83.55
2023-03-14T23:40:51.382Z,83.92
2023-03-14T23:42:31.660Z,83.61
2023-03-14T23:44:12.067Z,83.04
2023-03-14T23:45:52.488Z,82.79
2023-03-14T23:47:32.955Z,82.77
2023-03-14T23:49:13.449Z,83.55
2023-03-14T23:50:53.887Z,83.39
2023-03-14T23:52:34.214Z,83.63
2023-03-14T23:54:14.735Z,84.19
2023-03-14T23:55:55.071Z,84.16
2023-03-14T23:57:35.434Z,84.84
2023-03-14T23:59:15.837Z,84.57
